الصفحة الرئيسية
METAR-TAF:

METAR-TAF

مطار :

Maun, بتسوانا

دائرة عرض: 19-59S, خط طول: 023-25E, ارتفاع: 945 متر

مراقبة الطقس الحالي

تاريخ ووقت الإصدار 7ساعات و 53 دقيقة قبل الساعة 19:00UTC
ريح 5 عقدة من الشرق/الجنوب الشرقي
درجة الحرارة 22°درجة مئوية
الرطوبة 88%
ضغط 1017 hPa
الرؤية 10 كم أو أكثر
غيوم متفرقة على ارتفاع 2500 قدم
غيوم قليلة على ارتفاع 3000 قدم, مزنة ركامية.
غيوم مفككة على ارتفاع 6500 قدم

METAR: FBMN 051900Z 11005KT 9999 SCT025 FEW030CB BKN065 22/20 Q1017

زمن: 04:53 (02:53 UTC)

توقعات

تاريخ ووقت الإصدار 2ساعات و 53 دقيقة قبل الساعة 00:00UTC
التوقعات صالحة من06 الساعة 03 UTC إلى 06 الساعة 12 UTC
ريح 14 عقدة من الشرق/الشمال الشرقي
الرؤية 10 كم أو أكثر
غيوم مفككة على ارتفاع 1400 قدم
غيوم قليلة على ارتفاع 3500 قدم, مزنة ركامية.
نظرية الاحتمالات 40% :
مؤقت
من 06 الساعة 03 UTC إلى 06 الساعة 08 UTC
عاصفة رعدية, مطر
أصبح
من 06 الساعة 09 UTC إلى 06 الساعة 11 UTC
غيوم متفرقة على ارتفاع 2500 قدم

TAF: FBMN 060000Z 0603/0612 06014KT 9999 BKN014 FEW035CB PROB40 TEMPO 0603/0608 TSRA BECMG 0609/0611 SCT025

أرصاد الطقس والتوقعات من أكثر من 4000 مطار (تقارير الطقس للمطار METAR والتنبؤ بالطقس بالمطارTAF).

المحطات المتاحة هي النقط الصفراء والحمراء على الخريطة.

حرك المؤشر فوق النقطة لمعرفة اسم المحطة.

ثم انقر لمعرفة أرصاد وتوقعات الطقس.

لتغيير الخارطة: اضغط على الأزرار الخضراء مع رمز الصليب الأسود للتكبير. على الزر الأخضر مع شرطة للتصغير، أو على الأسهم الخضراء للخرائط المجاورة.


METAR-TAF: